Terminal Aerodrome Forecast
Issued by NWS Twin Cities, MN

Home | Current Version | Previous Version | Graphics & Text | Print | Product List | Glossary On
Versions: 1 2 3 4 5 6 7 8 9 10 11 12 13 14 15 16 17 18 19 20 21 22 23 24 25 26 27 28 29 30 31 32
000
FTUS43 KMPX 231600 AAC
TAFMSP
TAF AMD
KMSP 231629Z 2316/2418 17002KT 1 1/2SM BR OVC003
     FM231900 22005KT 5SM BR OVC007
     FM232100 31008KT P6SM OVC080
     FM240300 31014G23KT 3SM -SN OVC020
     FM240800 31017G27KT 6SM -SHSN OVC017
     FM241200 31019G25KT P6SM OVC020=

USA.gov is the U.S. government's official web portal to all federal, state and local government web resources and services.